Time,TemperatureF,DewpointF,PressureIn,WindDirection,WindDirectionDegrees,WindSpeedMPH,WindSpeedGustMPH,Humidity,HourlyPrecipIn,Conditions,Clouds,dailyrainin,SoftwareType,DateUTC
2013-01-18 00:00:00,14.7,7.6,30.81,East,90,0.0,0.0,73,0.00,,,0.00,WUHU21623XXSP,2013-01-18 05:00:00,
2013-01-18 00:02:00,14.7,7.6,30.81,East,90,0.0,0.0,73,0.00,,,0.00,WUHU21623XXSP,2013-01-18 05:02:00,
2013-01-18 00:07:00,14.9,8.1,30.82,ESE,112,0.0,0.0,74,0.00,,,0.00,WUHU21623XXSP,2013-01-18 05:07:00,
2013-01-18 00:12:00,14.9,8.1,30.81,SE,135,0.0,0.0,74,0.00,,,0.00,WUHU21623XXSP,2013-01-18 05:12:00,
2013-01-18 00:17:00,14.9,8.1,30.81,East,90,0.0,0.0,74,0.00,,,0.00,WUHU21623XXSP,2013-01-18 05:17:00,
2013-01-18 00:22:00,14.9,8.1,30.81,ESE,112,0.0,0.0,74,0.00,,,0.00,WUHU21623XXSP,2013-01-18 05:22:00,
2013-01-18 00:27:00,14.7,7.9,30.81,ESE,112,0.0,0.0,74,0.00,,,0.00,WUHU21623XXSP,2013-01-18 05:27:00,
2013-01-18 00:32:00,14.7,7.9,30.82,ESE,112,0.0,0.0,74,0.00,,,0.00,WUHU21623XXSP,2013-01-18 05:32:00,
2013-01-18 00:37:00,14.5,7.7,30.82,NE,45,0.0,0.0,74,0.00,,,0.00,WUHU21623XXSP,2013-01-18 05:37:00,
2013-01-18 00:42:00,14.2,7.4,30.82,East,90,0.0,0.0,74,0.00,,,0.00,WUHU21623XXSP,2013-01-18 05:42:00,
2013-01-18 00:48:00,14.2,7.4,30.82,East,90,0.0,0.0,74,0.00,,,0.00,WUHU21623XXSP,2013-01-18 05:48:00,
2013-01-18 00:53:00,13.8,7.1,30.82,ENE,67,0.0,0.0,74,0.00,,,0.00,WUHU21623XXSP,2013-01-18 05:53:00,
2013-01-18 00:58:00,13.6,6.9,30.82,ENE,67,0.0,0.0,74,0.00,,,0.00,WUHU21623XXSP,2013-01-18 05:58:00,
2013-01-18 01:03:00,13.6,6.9,30.82,ENE,67,0.0,0.0,74,0.00,,,0.00,WUHU21623XXSP,2013-01-18 06:03:00,
2013-01-18 01:08:00,13.1,6.6,30.83,ENE,67,0.0,0.0,75,0.00,,,0.00,WUHU21623XXSP,2013-01-18 06:08:00,
2013-01-18 01:13:00,12.9,6.4,30.83,ENE,67,0.0,0.0,75,0.00,,,0.00,WUHU21623XXSP,2013-01-18 06:13:00,
2013-01-18 01:18:00,12.7,6.3,30.83,ENE,67,0.0,0.0,75,0.00,,,0.00,WUHU21623XXSP,2013-01-18 06:18:00,
2013-01-18 01:23:00,12.4,6.1,30.83,ENE,67,0.0,0.0,75,0.00,,,0.00,WUHU21623XXSP,2013-01-18 06:23:00,
2013-01-18 01:28:00,12.0,5.5,30.84,ENE,67,0.0,0.0,75,0.00,,,0.00,WUHU21623XXSP,2013-01-18 06:28:00,
2013-01-18 01:33:00,12.0,5.5,30.84,ENE,67,0.0,0.0,75,0.00,,,0.00,WUHU21623XXSP,2013-01-18 06:33:00,
2013-01-18 01:38:00,11.7,5.2,30.83,ENE,67,0.0,0.0,75,0.00,,,0.00,WUHU21623XXSP,2013-01-18 06:38:00,
2013-01-18 01:43:00,11.5,5.3,30.84,ENE,67,0.0,0.0,76,0.00,,,0.00,WUHU21623XXSP,2013-01-18 06:43:00,
2013-01-18 01:48:00,11.1,4.9,30.84,ENE,67,0.0,0.0,76,0.00,,,0.00,WUHU21623XXSP,2013-01-18 06:48:00,
2013-01-18 01:53:00,10.9,4.7,30.84,ENE,67,0.0,0.0,76,0.00,,,0.00,WUHU21623XXSP,2013-01-18 06:53:00,
2013-01-18 01:58:00,10.8,4.6,30.84,ENE,67,0.0,0.0,76,0.00,,,0.00,WUHU21623XXSP,2013-01-18 06:58:00,
2013-01-18 02:03:00,10.8,4.6,30.84,ENE,67,0.0,0.0,76,0.00,,,0.00,WUHU21623XXSP,2013-01-18 07:03:00,
2013-01-18 02:08:00,10.4,4.7,30.84,ENE,67,0.0,0.0,77,0.00,,,0.00,WUHU21623XXSP,2013-01-18 07:08:00,
2013-01-18 02:13:00,10.2,4.3,30.85,ENE,67,0.0,0.0,77,0.00,,,0.00,WUHU21623XXSP,2013-01-18 07:13:00,
2013-01-18 02:18:00,10.2,4.3,30.85,ENE,67,0.0,0.0,77,0.00,,,0.00,WUHU21623XXSP,2013-01-18 07:18:00,
2013-01-18 02:23:00,10.0,4.2,30.86,ENE,67,0.0,0.0,77,0.00,,,0.00,WUHU21623XXSP,2013-01-18 07:23:00,
2013-01-18 02:28:00,10.0,4.2,30.87,ENE,67,0.0,0.0,77,0.00,,,0.00,WUHU21623XXSP,2013-01-18 07:28:00,
2013-01-18 02:33:00,9.7,3.8,30.87,ESE,112,0.0,0.0,77,0.00,,,0.00,WUHU21623XXSP,2013-01-18 07:33:00,
2013-01-18 02:38:00,10.0,4.2,30.87,ESE,112,0.0,0.0,77,0.00,,,0.00,WUHU21623XXSP,2013-01-18 07:38:00,
2013-01-18 02:43:00,10.0,4.2,30.87,NNW,337,0.0,0.0,77,0.00,,,0.00,WUHU21623XXSP,2013-01-18 07:43:00,
2013-01-18 02:48:00,10.0,4.2,30.87,NW,315,0.0,0.0,77,0.00,,,0.00,WUHU21623XXSP,2013-01-18 07:48:00,
2013-01-18 02:53:00,10.2,4.6,30.87,NNW,337,0.0,0.0,78,0.00,,,0.00,WUHU21623XXSP,2013-01-18 07:53:00,
2013-01-18 02:58:00,10.2,4.6,30.88,West,270,0.0,0.0,78,0.00,,,0.00,WUHU21623XXSP,2013-01-18 07:58:00,
2013-01-18 03:03:00,10.2,4.6,30.88,West,270,0.0,0.0,78,0.00,,,0.00,WUHU21623XXSP,2013-01-18 08:03:00,
2013-01-18 03:08:00,10.6,5.0,30.88,NE,45,0.0,0.0,78,0.00,,,0.00,WUHU21623XXSP,2013-01-18 08:08:00,
2013-01-18 03:13:00,10.6,5.0,30.88,NE,45,0.0,0.0,78,0.00,,,0.00,WUHU21623XXSP,2013-01-18 08:13:00,
2013-01-18 03:18:00,10.4,4.8,30.89,NE,45,0.0,0.0,78,0.00,,,0.00,WUHU21623XXSP,2013-01-18 08:18:00,
2013-01-18 03:23:00,10.2,4.6,30.89,NE,45,0.0,0.0,78,0.00,,,0.00,WUHU21623XXSP,2013-01-18 08:23:00,
2013-01-18 03:28:00,10.2,4.6,30.88,NE,45,0.0,0.0,78,0.00,,,0.00,WUHU21623XXSP,2013-01-18 08:28:00,
2013-01-18 03:33:00,10.0,4.5,30.88,NE,45,0.0,0.0,78,0.00,,,0.00,WUHU21623XXSP,2013-01-18 08:33:00,
2013-01-18 03:38:00,9.7,4.1,30.88,NE,45,0.0,0.0,78,0.00,,,0.00,WUHU21623XXSP,2013-01-18 08:38:00,
2013-01-18 03:43:00,9.7,4.1,30.89,NE,45,0.0,0.0,78,0.00,,,0.00,WUHU21623XXSP,2013-01-18 08:43:00,
2013-01-18 03:48:00,9.5,4.0,30.88,NE,45,0.0,0.0,78,0.00,,,0.00,WUHU21623XXSP,2013-01-18 08:48:00,
2013-01-18 03:53:00,9.3,4.1,30.88,NE,45,0.0,0.0,79,0.00,,,0.00,WUHU21623XXSP,2013-01-18 08:53:00,
2013-01-18 03:58:00,9.3,4.1,30.89,NE,45,0.0,0.0,79,0.00,,,0.00,WUHU21623XXSP,2013-01-18 08:58:00,
2013-01-18 04:03:00,9.3,4.1,30.88,NE,45,0.0,0.0,79,0.00,,,0.00,WUHU21623XXSP,2013-01-18 09:03:00,
2013-01-18 04:08:00,9.1,3.9,30.87,NE,45,0.0,0.0,79,0.00,,,0.00,WUHU21623XXSP,2013-01-18 09:08:00,
2013-01-18 04:13:00,9.0,3.8,30.87,NE,45,0.0,0.0,79,0.00,,,0.00,WUHU21623XXSP,2013-01-18 09:13:00,
2013-01-18 04:18:00,8.8,3.6,30.88,NE,45,0.0,0.0,79,0.00,,,0.00,WUHU21623XXSP,2013-01-18 09:18:00,
2013-01-18 04:23:00,8.8,3.6,30.87,NE,45,0.0,0.0,79,0.00,,,0.00,WUHU21623XXSP,2013-01-18 09:23:00,
2013-01-18 04:28:00,8.4,3.3,30.88,NE,45,0.0,0.0,79,0.00,,,0.00,WUHU21623XXSP,2013-01-18 09:28:00,
2013-01-18 04:33:00,8.4,3.3,30.88,NE,45,0.0,0.0,79,0.00,,,0.00,WUHU21623XXSP,2013-01-18 09:33:00,
2013-01-18 04:38:00,8.4,3.3,30.87,NE,45,0.0,0.0,79,0.00,,,0.00,WUHU21623XXSP,2013-01-18 09:38:00,
2013-01-18 04:43:00,8.2,3.1,30.87,NE,45,0.0,0.0,79,0.00,,,0.00,WUHU21623XXSP,2013-01-18 09:43:00,
2013-01-18 04:48:00,8.1,2.9,30.87,NE,45,0.0,0.0,79,0.00,,,0.00,WUHU21623XXSP,2013-01-18 09:48:00,
2013-01-18 04:53:00,8.1,2.9,30.88,NE,45,0.0,0.0,79,0.00,,,0.00,WUHU21623XXSP,2013-01-18 09:53:00,
2013-01-18 04:58:00,7.9,2.7,30.87,NE,45,0.0,0.0,79,0.00,,,0.00,WUHU21623XXSP,2013-01-18 09:58:00,
2013-01-18 05:03:00,7.7,2.6,30.88,NE,45,0.0,0.0,79,0.00,,,0.00,WUHU21623XXSP,2013-01-18 10:03:00,
2013-01-18 05:08:00,7.7,2.6,30.88,NE,45,0.0,0.0,79,0.00,,,0.00,WUHU21623XXSP,2013-01-18 10:08:00,
2013-01-18 05:13:00,7.5,2.7,30.87,NE,45,0.0,0.0,80,0.00,,,0.00,WUHU21623XXSP,2013-01-18 10:13:00,
2013-01-18 05:18:00,7.5,2.7,30.87,NE,45,0.0,0.0,80,0.00,,,0.00,WUHU21623XXSP,2013-01-18 10:18:00,
2013-01-18 05:23:00,7.3,2.5,30.87,NE,45,0.0,0.0,80,0.00,,,0.00,WUHU21623XXSP,2013-01-18 10:23:00,
2013-01-18 05:29:00,7.0,2.1,30.87,NE,45,0.0,0.0,80,0.00,,,0.00,WUHU21623XXSP,2013-01-18 10:29:00,
2013-01-18 05:34:00,7.0,2.1,30.87,NE,45,0.0,0.0,80,0.00,,,0.00,WUHU21623XXSP,2013-01-18 10:34:00,
2013-01-18 05:39:00,7.0,2.1,30.88,NE,45,0.0,0.0,80,0.00,,,0.00,WUHU21623XXSP,2013-01-18 10:39:00,
2013-01-18 05:44:00,6.6,1.8,30.88,NE,45,0.0,0.0,80,0.00,,,0.00,WUHU21623XXSP,2013-01-18 10:44:00,
2013-01-18 05:49:00,6.6,1.8,30.88,NE,45,0.0,0.0,80,0.00,,,0.00,WUHU21623XXSP,2013-01-18 10:49:00,
2013-01-18 05:54:00,6.6,1.8,30.88,NE,45,0.0,0.0,80,0.00,,,0.00,WUHU21623XXSP,2013-01-18 10:54:00,
2013-01-18 05:59:00,6.6,1.8,30.88,NE,45,0.0,0.0,80,0.00,,,0.00,WUHU21623XXSP,2013-01-18 10:59:00,
2013-01-18 06:04:00,6.6,1.8,30.89,NE,45,0.0,0.0,80,0.00,,,0.00,WUHU21623XXSP,2013-01-18 11:04:00,
2013-01-18 06:09:00,6.6,1.8,30.89,NE,45,0.0,0.0,80,0.00,,,0.00,WUHU21623XXSP,2013-01-18 11:09:00,
2013-01-18 06:14:00,6.6,1.8,30.89,NE,45,0.0,0.0,80,0.00,,,0.00,WUHU21623XXSP,2013-01-18 11:14:00,
2013-01-18 06:19:00,6.6,1.8,30.89,NE,45,0.0,0.0,80,0.00,,,0.00,WUHU21623XXSP,2013-01-18 11:19:00,
2013-01-18 06:24:00,6.6,1.8,30.89,NE,45,0.0,0.0,80,0.00,,,0.00,WUHU21623XXSP,2013-01-18 11:24:00,
2013-01-18 06:29:00,6.4,1.6,30.89,NE,45,0.0,0.0,80,0.00,,,0.00,WUHU21623XXSP,2013-01-18 11:29:00,
2013-01-18 06:34:00,6.4,1.6,30.89,NE,45,0.0,0.0,80,0.00,,,0.00,WUHU21623XXSP,2013-01-18 11:34:00,
2013-01-18 06:39:00,6.4,1.6,30.89,NE,45,0.0,0.0,80,0.00,,,0.00,WUHU21623XXSP,2013-01-18 11:39:00,
2013-01-18 06:44:00,6.4,1.6,30.89,NE,45,0.0,0.0,80,0.00,,,0.00,WUHU21623XXSP,2013-01-18 11:44:00,
2013-01-18 06:49:00,6.1,1.2,30.88,NE,45,0.0,0.0,80,0.00,,,0.00,WUHU21623XXSP,2013-01-18 11:49:00,
2013-01-18 06:54:00,6.1,1.2,30.88,NE,45,0.0,0.0,80,0.00,,,0.00,WUHU21623XXSP,2013-01-18 11:54:00,
2013-01-18 06:59:00,6.1,1.5,30.88,NE,45,0.0,0.0,81,0.00,,,0.00,WUHU21623XXSP,2013-01-18 11:59:00,
2013-01-18 07:04:00,5.9,1.0,30.87,NE,45,0.0,0.0,80,0.00,,,0.00,WUHU21623XXSP,2013-01-18 12:04:00,
2013-01-18 07:09:00,5.9,1.0,30.88,NE,45,0.0,0.0,80,0.00,,,0.00,WUHU21623XXSP,2013-01-18 12:09:00,
2013-01-18 07:14:00,5.7,0.9,30.88,NE,45,0.0,0.0,80,0.00,,,0.00,WUHU21623XXSP,2013-01-18 12:14:00,
2013-01-18 07:19:00,5.7,1.1,30.88,NE,45,0.0,0.0,81,0.00,,,0.00,WUHU21623XXSP,2013-01-18 12:19:00,
2013-01-18 07:24:00,5.7,1.1,30.88,NE,45,0.0,0.0,81,0.00,,,0.00,WUHU21623XXSP,2013-01-18 12:24:00,
2013-01-18 07:29:00,5.7,1.1,30.88,NE,45,0.0,0.0,81,0.00,,,0.00,WUHU21623XXSP,2013-01-18 12:29:00,
2013-01-18 07:34:00,5.7,1.1,30.88,NE,45,0.0,0.0,81,0.00,,,0.00,WUHU21623XXSP,2013-01-18 12:34:00,
2013-01-18 07:39:00,5.7,1.1,30.88,NE,45,0.0,0.0,81,0.00,,,0.00,WUHU21623XXSP,2013-01-18 12:39:00,
2013-01-18 07:44:00,5.7,1.1,30.87,NE,45,0.0,0.0,81,0.00,,,0.00,WUHU21623XXSP,2013-01-18 12:44:00,
2013-01-18 07:49:00,5.7,1.1,30.87,NE,45,0.0,0.0,81,0.00,,,0.00,WUHU21623XXSP,2013-01-18 12:49:00,
2013-01-18 07:54:00,5.9,1.3,30.87,NE,45,0.0,0.0,81,0.00,,,0.00,WUHU21623XXSP,2013-01-18 12:54:00,
2013-01-18 07:59:00,5.7,1.1,30.87,NE,45,0.0,0.0,81,0.00,,,0.00,WUHU21623XXSP,2013-01-18 12:59:00,
2013-01-18 08:04:00,5.9,1.3,30.86,NE,45,0.0,0.0,81,0.00,,,0.00,WUHU21623XXSP,2013-01-18 13:04:00,
2013-01-18 08:09:00,5.7,1.1,30.86,NE,45,0.0,0.0,81,0.00,,,0.00,WUHU21623XXSP,2013-01-18 13:09:00,
2013-01-18 08:14:00,5.7,1.1,30.86,NE,45,0.0,0.0,81,0.00,,,0.00,WUHU21623XXSP,2013-01-18 13:14:00,
2013-01-18 08:19:00,5.7,1.1,30.86,NE,45,0.0,0.0,81,0.00,,,0.00,WUHU21623XXSP,2013-01-18 13:19:00,
2013-01-18 08:24:00,5.7,1.1,30.86,NE,45,0.0,0.0,81,0.00,,,0.00,WUHU21623XXSP,2013-01-18 13:24:00,
2013-01-18 08:29:00,6.1,1.5,30.86,NE,45,0.0,0.0,81,0.00,,,0.00,WUHU21623XXSP,2013-01-18 13:29:00,
2013-01-18 08:34:00,6.1,1.5,30.86,NE,45,0.0,0.0,81,0.00,,,0.00,WUHU21623XXSP,2013-01-18 13:34:00,
2013-01-18 08:39:00,6.3,1.7,30.85,NE,45,0.0,0.0,81,0.00,,,0.00,WUHU21623XXSP,2013-01-18 13:39:00,
2013-01-18 08:44:00,6.4,1.8,30.85,NE,45,0.0,0.0,81,0.00,,,0.00,WUHU21623XXSP,2013-01-18 13:44:00,
2013-01-18 08:49:00,6.6,2.0,30.85,NE,45,0.0,0.0,81,0.00,,,0.00,WUHU21623XXSP,2013-01-18 13:49:00,
2013-01-18 08:54:00,7.0,2.4,30.86,NE,45,0.0,0.0,81,0.00,,,0.00,WUHU21623XXSP,2013-01-18 13:54:00,
2013-01-18 08:59:00,7.5,2.9,30.86,NE,45,0.0,0.0,81,0.00,,,0.00,WUHU21623XXSP,2013-01-18 13:59:00,
2013-01-18 09:04:00,8.1,3.5,30.85,NE,45,0.0,0.0,81,0.00,,,0.00,WUHU21623XXSP,2013-01-18 14:04:00,
2013-01-18 09:09:00,9.1,4.7,30.86,NE,45,0.0,0.0,82,0.00,,,0.00,WUHU21623XXSP,2013-01-18 14:09:00,
2013-01-18 09:14:00,9.7,5.2,30.85,NE,45,0.0,0.0,82,0.00,,,0.00,WUHU21623XXSP,2013-01-18 14:14:00,
2013-01-18 09:19:00,10.2,5.7,30.86,NE,45,0.0,0.0,82,0.00,,,0.00,WUHU21623XXSP,2013-01-18 14:19:00,
2013-01-18 09:24:00,11.1,6.6,30.86,NE,45,0.0,0.0,82,0.00,,,0.00,WUHU21623XXSP,2013-01-18 14:24:00,
2013-01-18 09:29:00,12.0,7.5,30.86,SSE,157,0.0,0.0,82,0.00,,,0.00,WUHU21623XXSP,2013-01-18 14:29:00,
2013-01-18 09:35:00,12.6,8.1,30.86,East,90,0.0,0.0,82,0.00,,,0.00,WUHU21623XXSP,2013-01-18 14:35:00,
2013-01-18 09:40:00,13.6,9.4,30.86,SE,135,0.0,0.0,83,0.00,,,0.00,WUHU21623XXSP,2013-01-18 14:40:00,
2013-01-18 09:45:00,14.2,9.9,30.86,ENE,67,0.0,0.0,83,0.00,,,0.00,WUHU21623XXSP,2013-01-18 14:45:00,
2013-01-18 09:50:00,14.7,9.8,30.86,ESE,112,0.0,0.0,82,0.00,,,0.00,WUHU21623XXSP,2013-01-18 14:50:00,
2013-01-18 09:55:00,15.4,10.7,30.86,SE,135,0.0,0.0,81,0.00,,,0.00,WUHU21623XXSP,2013-01-18 14:55:00,
2013-01-18 10:00:00,15.6,10.8,30.86,SE,135,0.0,0.0,81,0.00,,,0.00,WUHU21623XXSP,2013-01-18 15:00:00,
2013-01-18 10:05:00,16.2,10.9,30.86,North,0,0.0,0.0,80,0.00,,,0.00,WUHU21623XXSP,2013-01-18 15:05:00,
2013-01-18 10:10:00,16.5,11.1,30.86,SSE,157,0.0,0.0,79,0.00,,,0.00,WUHU21623XXSP,2013-01-18 15:10:00,
2013-01-18 10:15:00,16.9,11.7,30.85,North,0,0.0,0.0,80,0.00,,,0.00,WUHU21623XXSP,2013-01-18 15:15:00,
2013-01-18 10:19:00,17.2,11.5,30.85,NE,45,0.0,0.0,78,0.00,,,0.00,WUHU21623XXSP,2013-01-18 15:19:00,
2013-01-18 10:20:00,17.2,11.5,30.85,NE,45,0.0,0.0,78,0.00,,,0.00,WUHU21623XXSP,2013-01-18 15:20:00,
2013-01-18 10:26:00,17.8,11.7,30.84,SW,225,0.0,0.0,77,0.00,,,0.00,WUHU21623XXSP,2013-01-18 15:26:00,
2013-01-18 10:32:00,18.0,11.9,30.84,West,270,0.0,0.0,77,0.00,,,0.00,WUHU21623XXSP,2013-01-18 15:32:00,
2013-01-18 10:37:00,18.3,11.9,30.84,NNE,22,0.0,0.0,76,0.00,,,0.00,WUHU21623XXSP,2013-01-18 15:37:00,
2013-01-18 10:41:00,18.7,12.1,30.84,ESE,112,1.6,1.6,76,0.00,,,0.00,WUHU21623XXSP,2013-01-18 15:41:00,
2013-01-18 10:47:00,19.0,12.6,30.83,NE,45,0.0,1.6,76,0.00,,,0.00,WUHU21623XXSP,2013-01-18 15:47:00,
2013-01-18 10:52:00,19.2,12.5,30.83,NE,45,0.0,0.0,75,0.00,,,0.00,WUHU21623XXSP,2013-01-18 15:52:00,
2013-01-18 10:58:00,19.8,12.8,30.82,SW,225,0.0,0.0,75,0.00,,,0.00,WUHU21623XXSP,2013-01-18 15:58:00,
2013-01-18 11:02:00,19.9,13.2,30.82,SE,135,0.0,0.0,75,0.00,,,0.00,WUHU21623XXSP,2013-01-18 16:02:00,
2013-01-18 11:07:00,20.1,13.4,30.82,ENE,67,0.0,0.0,75,0.00,,,0.00,WUHU21623XXSP,2013-01-18 16:07:00,
2013-01-18 11:13:00,20.7,13.9,30.82,WSW,247,0.0,0.0,75,0.00,,,0.00,WUHU21623XXSP,2013-01-18 16:13:00,
2013-01-18 11:17:00,21.0,14.0,30.81,NNE,22,6.7,6.7,74,0.00,,,0.00,WUHU21623XXSP,2013-01-18 16:17:00,
2013-01-18 11:22:00,21.2,14.1,30.81,West,270,0.0,6.7,74,0.00,,,0.00,WUHU21623XXSP,2013-01-18 16:22:00,
2013-01-18 11:28:00,21.6,14.5,30.80,NNE,22,2.0,2.0,74,0.00,,,0.00,WUHU21623XXSP,2013-01-18 16:28:00,
2013-01-18 11:32:00,21.9,14.9,30.80,NE,45,0.0,2.5,74,0.00,,,0.00,WUHU21623XXSP,2013-01-18 16:32:00,
2013-01-18 11:39:00,22.1,14.7,30.79,North,0,0.0,2.5,73,0.00,,,0.00,WUHU21623XXSP,2013-01-18 16:39:00,
2013-01-18 11:43:00,22.3,14.9,30.79,NE,45,0.0,0.0,73,0.00,,,0.00,WUHU21623XXSP,2013-01-18 16:43:00,
2013-01-18 11:49:00,22.8,15.5,30.78,SE,135,0.0,2.2,73,0.00,,,0.00,WUHU21623XXSP,2013-01-18 16:49:00,
2013-01-18 11:54:00,22.8,15.5,30.78,NNE,22,0.0,2.2,73,0.00,,,0.00,WUHU21623XXSP,2013-01-18 16:54:00,
2013-01-18 11:58:00,22.8,15.5,30.77,East,90,0.0,0.0,73,0.00,,,0.00,WUHU21623XXSP,2013-01-18 16:58:00,
2013-01-18 12:04:00,23.2,16.1,30.76,NE,45,0.0,0.0,74,0.00,,,0.00,WUHU21623XXSP,2013-01-18 17:04:00,
2013-01-18 12:09:00,23.2,16.1,30.76,NW,315,0.0,0.0,74,0.00,,,0.00,WUHU21623XXSP,2013-01-18 17:09:00,
2013-01-18 12:13:00,23.4,16.3,30.75,ENE,67,0.0,0.0,74,0.00,,,0.00,WUHU21623XXSP,2013-01-18 17:13:00,
2013-01-18 12:19:00,23.5,16.8,30.74,West,270,0.0,0.0,75,0.00,,,0.00,WUHU21623XXSP,2013-01-18 17:19:00,
2013-01-18 12:24:00,23.5,16.8,30.74,NNE,22,0.0,0.0,75,0.00,,,0.00,WUHU21623XXSP,2013-01-18 17:24:00,
2013-01-18 12:28:00,23.5,16.8,30.72,SSW,202,0.0,0.0,75,0.00,,,0.00,WUHU21623XXSP,2013-01-18 17:28:00,
2013-01-18 12:34:00,23.7,16.9,30.71,ESE,112,0.0,5.1,75,0.00,,,0.00,WUHU21623XXSP,2013-01-18 17:34:00,
2013-01-18 12:39:00,23.9,17.1,30.71,East,90,0.0,5.1,75,0.00,,,0.00,WUHU21623XXSP,2013-01-18 17:39:00,
2013-01-18 12:45:00,23.7,17.2,30.70,North,0,2.5,2.5,76,0.00,,,0.00,WUHU21623XXSP,2013-01-18 17:45:00,
2013-01-18 12:49:00,23.5,17.1,30.70,NNE,22,0.0,2.5,76,0.00,,,0.00,WUHU21623XXSP,2013-01-18 17:49:00,
2013-01-18 12:54:00,23.5,17.1,30.69,NNE,22,0.0,0.0,76,0.00,,,0.00,WUHU21623XXSP,2013-01-18 17:54:00,
2013-01-18 13:00:00,23.5,17.1,30.68,WSW,247,0.0,0.0,76,0.00,,,0.00,WUHU21623XXSP,2013-01-18 18:00:00,
2013-01-18 13:04:00,23.5,17.1,30.68,NE,45,0.0,1.1,76,0.00,,,0.00,WUHU21623XXSP,2013-01-18 18:04:00,
2013-01-18 13:09:00,23.7,17.5,30.68,NE,45,0.0,1.1,77,0.00,,,0.00,WUHU21623XXSP,2013-01-18 18:09:00,
2013-01-18 13:15:00,23.7,17.5,30.66,ENE,67,0.0,0.0,77,0.00,,,0.00,WUHU21623XXSP,2013-01-18 18:15:00,
2013-01-18 13:19:00,23.9,17.7,30.66,NNW,337,0.0,0.0,77,0.00,,,0.00,WUHU21623XXSP,2013-01-18 18:19:00,
2013-01-18 13:26:00,24.1,18.2,30.65,NNW,337,0.0,0.0,78,0.00,,,0.00,WUHU21623XXSP,2013-01-18 18:26:00,
2013-01-18 13:30:00,24.3,18.4,30.64,North,0,0.0,0.0,78,0.00,,,0.00,WUHU21623XXSP,2013-01-18 18:30:00,
2013-01-18 13:34:00,24.6,18.8,30.64,West,270,0.0,0.0,78,0.00,,,0.00,WUHU21623XXSP,2013-01-18 18:34:00,
2013-01-18 13:41:00,25.2,18.9,30.63,NNE,22,0.0,0.0,77,0.00,,,0.00,WUHU21623XXSP,2013-01-18 18:41:00,
2013-01-18 13:45:00,25.5,19.1,30.63,NNE,22,0.0,0.0,77,0.00,,,0.00,WUHU21623XXSP,2013-01-18 18:45:00,
2013-01-18 13:49:00,25.9,19.6,30.62,North,0,0.0,0.0,77,0.00,,,0.00,WUHU21623XXSP,2013-01-18 18:49:00,
2013-01-18 13:56:00,26.4,19.8,30.61,NE,45,0.0,0.0,76,0.00,,,0.00,WUHU21623XXSP,2013-01-18 18:56:00,
2013-01-18 14:00:00,26.4,19.8,30.61,NNE,22,0.0,0.0,76,0.00,,,0.00,WUHU21623XXSP,2013-01-18 19:00:00,
2013-01-18 14:04:00,26.8,20.2,30.60,West,270,0.0,3.1,76,0.00,,,0.00,WUHU21623XXSP,2013-01-18 19:04:00,
2013-01-18 14:11:00,27.1,20.5,30.59,West,270,0.0,3.1,76,0.00,,,0.00,WUHU21623XXSP,2013-01-18 19:11:00,
2013-01-18 14:15:00,27.3,20.7,30.59,NNW,337,0.0,0.0,76,0.00,,,0.00,WUHU21623XXSP,2013-01-18 19:15:00,
2013-01-18 14:21:00,27.3,20.7,30.58,NE,45,0.0,0.0,76,0.00,,,0.00,WUHU21623XXSP,2013-01-18 19:21:00,
2013-01-18 14:26:00,27.5,20.9,30.59,SE,135,0.0,0.0,76,0.00,,,0.00,WUHU21623XXSP,2013-01-18 19:26:00,
2013-01-18 14:30:00,27.7,21.1,30.59,West,270,2.9,2.9,76,0.00,,,0.00,WUHU21623XXSP,2013-01-18 19:30:00,
2013-01-18 14:36:00,27.7,21.1,30.58,NNE,22,0.0,2.9,76,0.00,,,0.00,WUHU21623XXSP,2013-01-18 19:36:00,
2013-01-18 14:41:00,27.7,21.1,30.57,WNW,292,0.0,0.0,76,0.00,,,0.00,WUHU21623XXSP,2013-01-18 19:41:00,
2013-01-18 14:45:00,28.0,21.4,30.56,NNW,337,0.0,0.0,76,0.00,,,0.00,WUHU21623XXSP,2013-01-18 19:45:00,
2013-01-18 14:52:00,28.0,21.1,30.56,SE,135,0.0,0.0,75,0.00,,,0.00,WUHU21623XXSP,2013-01-18 19:52:00,
2013-01-18 14:56:00,28.2,21.3,30.55,ESE,112,0.0,0.0,75,0.00,,,0.00,WUHU21623XXSP,2013-01-18 19:56:00,
2013-01-18 15:00:00,28.6,21.3,30.55,WSW,247,0.0,0.0,75,0.00,,,0.00,WUHU21623XXSP,2013-01-18 20:00:00,
2013-01-18 15:06:00,28.6,21.3,30.53,North,0,0.0,0.0,74,0.00,,,0.00,WUHU21623XXSP,2013-01-18 20:06:00,
2013-01-18 15:11:00,28.9,21.7,30.53,South,180,0.0,0.0,74,0.00,,,0.00,WUHU21623XXSP,2013-01-18 20:11:00,
2013-01-18 15:17:00,29.1,21.5,30.52,ENE,67,0.0,0.0,73,0.00,,,0.00,WUHU21623XXSP,2013-01-18 20:17:00,
2013-01-18 15:21:00,29.1,21.5,30.52,NNW,337,0.0,0.0,73,0.00,,,0.00,WUHU21623XXSP,2013-01-18 20:21:00,
2013-01-18 15:26:00,29.3,21.4,30.51,SSW,202,0.0,0.0,72,0.00,,,0.00,WUHU21623XXSP,2013-01-18 20:26:00,
2013-01-18 15:32:00,29.5,21.1,30.51,NNW,337,0.0,0.0,71,0.00,,,0.00,WUHU21623XXSP,2013-01-18 20:32:00,
2013-01-18 15:36:00,29.8,21.5,30.51,NE,45,0.0,0.0,71,0.00,,,0.00,WUHU21623XXSP,2013-01-18 20:36:00,
2013-01-18 15:41:00,30.4,21.7,30.51,East,90,0.0,0.0,70,0.00,,,0.00,WUHU21623XXSP,2013-01-18 20:41:00,
2013-01-18 15:47:00,30.7,21.7,30.50,SSW,202,0.0,0.0,69,0.00,,,0.00,WUHU21623XXSP,2013-01-18 20:47:00,
2013-01-18 15:51:00,30.7,21.7,30.50,WSW,247,0.0,0.0,69,0.00,,,0.00,WUHU21623XXSP,2013-01-18 20:51:00,
2013-01-18 15:56:00,30.9,21.9,30.49,ENE,67,7.8,7.8,69,0.00,,,0.00,WUHU21623XXSP,2013-01-18 20:56:00,
2013-01-18 16:02:00,30.9,21.9,30.49,NNW,337,0.0,7.8,69,0.00,,,0.00,WUHU21623XXSP,2013-01-18 21:02:00,
2013-01-18 16:06:00,30.9,21.6,30.49,WSW,247,0.0,1.1,68,0.00,,,0.00,WUHU21623XXSP,2013-01-18 21:06:00,
2013-01-18 16:11:00,31.1,21.7,30.49,North,0,0.0,0.0,68,0.00,,,0.00,WUHU21623XXSP,2013-01-18 21:11:00,
2013-01-18 16:17:00,31.3,21.9,30.48,SSW,202,0.0,0.0,68,0.00,,,0.00,WUHU21623XXSP,2013-01-18 21:17:00,
2013-01-18 16:22:00,31.3,22.3,30.48,WSW,247,0.0,0.0,69,0.00,,,0.00,WUHU21623XXSP,2013-01-18 21:22:00,
2013-01-18 16:28:00,31.3,22.3,30.47,North,0,0.0,0.0,69,0.00,,,0.00,WUHU21623XXSP,2013-01-18 21:28:00,
2013-01-18 16:32:00,31.3,22.3,30.47,WSW,247,0.0,0.0,69,0.00,,,0.00,WUHU21623XXSP,2013-01-18 21:32:00,
2013-01-18 16:37:00,31.6,22.6,30.47,NNE,22,0.0,1.3,69,0.00,,,0.00,WUHU21623XXSP,2013-01-18 21:37:00,
2013-01-18 16:43:00,31.6,23.0,30.46,East,90,0.0,6.9,70,0.00,,,0.00,WUHU21623XXSP,2013-01-18 21:43:00,
2013-01-18 16:47:00,31.8,23.2,30.46,ENE,67,0.0,6.9,70,0.00,,,0.00,WUHU21623XXSP,2013-01-18 21:47:00,
2013-01-18 16:51:00,31.8,23.2,30.46,NNW,337,0.0,0.0,70,0.00,,,0.00,WUHU21623XXSP,2013-01-18 21:51:00,
2013-01-18 16:58:00,31.8,23.2,30.45,WSW,247,0.0,0.0,70,0.00,,,0.00,WUHU21623XXSP,2013-01-18 21:58:00,
2013-01-18 17:02:00,31.6,23.3,30.45,WSW,247,0.0,0.0,71,0.00,,,0.00,WUHU21623XXSP,2013-01-18 22:02:00,
2013-01-18 17:09:00,31.6,23.3,30.45,West,270,0.0,0.0,71,0.00,,,0.00,WUHU21623XXSP,2013-01-18 22:09:00,
2013-01-18 17:13:00,31.6,23.3,30.45,NE,45,0.0,0.0,71,0.00,,,0.00,WUHU21623XXSP,2013-01-18 22:13:00,
2013-01-18 17:17:00,31.6,23.3,30.44,NNW,337,0.0,0.0,71,0.00,,,0.00,WUHU21623XXSP,2013-01-18 22:17:00,
2013-01-18 17:24:00,31.6,23.3,30.44,NNE,22,0.0,0.0,71,0.00,,,0.00,WUHU21623XXSP,2013-01-18 22:24:00,
2013-01-18 17:28:00,31.6,23.6,30.44,East,90,3.6,3.6,72,0.00,,,0.00,WUHU21623XXSP,2013-01-18 22:28:00,
2013-01-18 17:32:00,31.6,23.6,30.43,North,0,0.0,3.6,72,0.00,,,0.00,WUHU21623XXSP,2013-01-18 22:32:00,
2013-01-18 17:43:00,31.8,23.8,30.43,NW,315,0.0,2.9,72,0.00,,,0.00,WUHU21623XXSP,2013-01-18 22:43:00,
2013-01-18 17:48:00,31.8,23.8,30.43,SW,225,0.0,0.0,72,0.00,,,0.00,WUHU21623XXSP,2013-01-18 22:48:00,
2013-01-18 17:53:00,31.8,23.8,30.43,NE,45,0.0,0.0,72,0.00,,,0.00,WUHU21623XXSP,2013-01-18 22:53:00,
2013-01-18 17:58:00,31.8,23.8,30.43,NE,45,9.2,9.2,72,0.00,,,0.00,WUHU21623XXSP,2013-01-18 22:58:00,
2013-01-18 18:03:00,31.8,23.8,30.43,NNE,22,0.0,9.2,72,0.00,,,0.00,WUHU21623XXSP,2013-01-18 23:03:00,
2013-01-18 18:08:00,31.8,23.8,30.43,East,90,0.9,0.9,72,0.00,,,0.00,WUHU21623XXSP,2013-01-18 23:08:00,
2013-01-18 18:13:00,31.8,23.8,30.43,East,90,0.0,0.9,72,0.00,,,0.00,WUHU21623XXSP,2013-01-18 23:13:00,
2013-01-18 18:19:00,31.8,23.8,30.43,NE,45,2.5,2.5,72,0.00,,,0.00,WUHU21623XXSP,2013-01-18 23:19:00,
2013-01-18 18:24:00,31.8,23.8,30.43,NE,45,0.0,2.5,72,0.00,,,0.00,WUHU21623XXSP,2013-01-18 23:24:00,
2013-01-18 18:29:00,32.2,24.2,30.43,ESE,112,1.8,2.0,72,0.00,,,0.00,WUHU21623XXSP,2013-01-18 23:29:00,
2013-01-18 18:33:00,32.2,24.2,30.43,NNE,22,0.0,1.8,72,0.00,,,0.00,WUHU21623XXSP,2013-01-18 23:33:00,
2013-01-18 18:39:00,32.2,24.2,30.43,NNE,22,0.0,0.0,72,0.00,,,0.00,WUHU21623XXSP,2013-01-18 23:39:00,
2013-01-18 18:44:00,32.2,24.2,30.44,NW,315,0.0,0.0,72,0.00,,,0.00,WUHU21623XXSP,2013-01-18 23:44:00,
2013-01-18 18:49:00,32.2,24.2,30.44,NNE,22,5.1,5.1,72,0.00,,,0.00,WUHU21623XXSP,2013-01-18 23:49:00,
2013-01-18 18:54:00,32.2,24.2,30.44,NNE,22,0.0,5.1,72,0.00,,,0.00,WUHU21623XXSP,2013-01-18 23:54:00,
2013-01-18 18:59:00,32.2,24.2,30.44,ENE,67,0.0,5.1,72,0.00,,,0.00,WUHU21623XXSP,2013-01-18 23:59:00,
2013-01-18 19:04:00,32.4,24.3,30.44,East,90,0.0,0.0,72,0.00,,,0.00,WUHU21623XXSP,2013-01-19 00:04:00,
2013-01-18 19:09:00,32.4,24.3,30.43,East,90,0.0,0.0,72,0.00,,,0.00,WUHU21623XXSP,2013-01-19 00:09:00,
2013-01-18 19:14:00,32.4,24.7,30.43,ENE,67,0.0,2.5,73,0.00,,,0.00,WUHU21623XXSP,2013-01-19 00:14:00,
2013-01-18 19:19:00,32.4,24.7,30.43,WSW,247,0.0,2.5,73,0.00,,,0.00,WUHU21623XXSP,2013-01-19 00:19:00,
2013-01-18 19:24:00,32.4,24.7,30.44,SSE,157,0.0,0.0,73,0.00,,,0.00,WUHU21623XXSP,2013-01-19 00:24:00,
2013-01-18 19:29:00,32.4,24.7,30.43,NE,45,0.0,0.0,73,0.00,,,0.00,WUHU21623XXSP,2013-01-19 00:29:00,
2013-01-18 19:34:00,32.4,24.7,30.43,SW,225,0.0,0.0,73,0.00,,,0.00,WUHU21623XXSP,2013-01-19 00:34:00,
2013-01-18 19:39:00,32.5,24.8,30.43,North,0,0.0,0.0,73,0.00,,,0.00,WUHU21623XXSP,2013-01-19 00:39:00,
2013-01-18 19:44:00,32.5,25.1,30.43,South,180,0.0,0.0,74,0.00,,,0.00,WUHU21623XXSP,2013-01-19 00:44:00,
2013-01-18 19:49:00,32.5,24.8,30.43,NNE,22,0.0,0.0,73,0.00,,,0.00,WUHU21623XXSP,2013-01-19 00:49:00,
2013-01-18 19:54:00,32.7,25.3,30.43,NNE,22,0.0,0.0,74,0.00,,,0.00,WUHU21623XXSP,2013-01-19 00:54:00,
2013-01-18 19:59:00,32.7,25.0,30.43,NE,45,0.0,0.0,73,0.00,,,0.00,WUHU21623XXSP,2013-01-19 00:59:00,
2013-01-18 20:04:00,32.7,25.0,30.42,NW,315,0.0,0.0,73,0.00,,,0.00,WUHU21623XXSP,2013-01-19 01:04:00,
2013-01-18 20:09:00,32.7,25.0,30.42,SW,225,0.0,0.0,73,0.00,,,0.00,WUHU21623XXSP,2013-01-19 01:09:00,
2013-01-18 20:14:00,32.7,25.0,30.42,WNW,292,0.0,2.5,73,0.00,,,0.00,WUHU21623XXSP,2013-01-19 01:14:00,
2013-01-18 20:19:00,32.9,25.1,30.42,SE,135,0.0,2.5,73,0.00,,,0.00,WUHU21623XXSP,2013-01-19 01:19:00,
2013-01-18 20:24:00,32.9,25.1,30.41,NE,45,4.7,4.7,73,0.00,,,0.00,WUHU21623XXSP,2013-01-19 01:24:00,
2013-01-18 20:29:00,33.1,25.3,30.41,West,270,0.0,4.7,73,0.00,,,0.00,WUHU21623XXSP,2013-01-19 01:29:00,
2013-01-18 20:34:00,33.1,25.3,30.41,East,90,0.0,1.6,73,0.00,,,0.00,WUHU21623XXSP,2013-01-19 01:34:00,
2013-01-18 20:39:00,33.1,25.3,30.40,ESE,112,1.3,1.6,73,0.00,,,0.00,WUHU21623XXSP,2013-01-19 01:39:00,
2013-01-18 20:44:00,33.3,25.5,30.40,East,90,0.0,1.3,73,0.00,,,0.00,WUHU21623XXSP,2013-01-19 01:44:00,
2013-01-18 20:49:00,33.1,25.3,30.40,North,0,0.0,1.3,73,0.00,,,0.00,WUHU21623XXSP,2013-01-19 01:49:00,
2013-01-18 20:54:00,33.1,25.5,30.40,East,90,0.0,0.0,73,0.00,,,0.00,WUHU21623XXSP,2013-01-19 01:54:00,
2013-01-18 20:59:00,33.3,25.5,30.40,NE,45,0.0,0.0,73,0.00,,,0.00,WUHU21623XXSP,2013-01-19 01:59:00,
2013-01-18 21:04:00,33.3,25.5,30.40,North,0,0.0,0.0,73,0.00,,,0.00,WUHU21623XXSP,2013-01-19 02:04:00,
2013-01-18 21:09:00,33.3,25.5,30.40,North,0,0.0,4.5,73,0.00,,,0.00,WUHU21623XXSP,2013-01-19 02:09:00,
2013-01-18 21:14:00,33.3,25.5,30.40,ENE,67,0.7,4.5,73,0.00,,,0.00,WUHU21623XXSP,2013-01-19 02:14:00,
2013-01-18 21:19:00,33.3,25.5,30.39,North,0,0.0,0.7,73,0.00,,,0.00,WUHU21623XXSP,2013-01-19 02:19:00,
2013-01-18 21:24:00,32.9,25.1,30.39,SSW,202,0.0,0.7,73,0.00,,,0.00,WUHU21623XXSP,2013-01-19 02:24:00,
2013-01-18 21:29:00,32.9,25.1,30.39,ENE,67,0.0,0.0,73,0.00,,,0.00,WUHU21623XXSP,2013-01-19 02:29:00,
2013-01-18 21:34:00,32.7,25.0,30.39,ENE,67,0.0,0.0,73,0.00,,,0.00,WUHU21623XXSP,2013-01-19 02:34:00,
2013-01-18 21:39:00,32.5,24.8,30.38,NE,45,2.0,2.0,73,0.00,,,0.00,WUHU21623XXSP,2013-01-19 02:39:00,
2013-01-18 21:44:00,32.5,24.8,30.39,NNE,22,0.0,2.0,73,0.00,,,0.00,WUHU21623XXSP,2013-01-19 02:44:00,
2013-01-18 21:49:00,32.5,24.8,30.38,ESE,112,0.0,2.5,73,0.00,,,0.00,WUHU21623XXSP,2013-01-19 02:49:00,
2013-01-18 21:54:00,32.5,24.8,30.38,WNW,292,0.0,2.5,73,0.00,,,0.00,WUHU21623XXSP,2013-01-19 02:54:00,
2013-01-18 21:59:00,32.5,24.8,30.38,NNW,337,0.0,0.0,73,0.00,,,0.00,WUHU21623XXSP,2013-01-19 02:59:00,
2013-01-18 22:04:00,32.5,24.8,30.37,ESE,112,0.0,0.0,73,0.00,,,0.00,WUHU21623XXSP,2013-01-19 03:04:00,
2013-01-18 22:09:00,32.5,24.5,30.37,North,0,0.0,0.0,72,0.00,,,0.00,WUHU21623XXSP,2013-01-19 03:09:00,
2013-01-18 22:14:00,32.7,24.7,30.37,WNW,292,0.0,0.0,72,0.00,,,0.00,WUHU21623XXSP,2013-01-19 03:14:00,
2013-01-18 22:19:00,32.7,24.7,30.36,NNW,337,0.0,0.0,72,0.00,,,0.00,WUHU21623XXSP,2013-01-19 03:19:00,
2013-01-18 22:24:00,32.7,24.7,30.37,SSW,202,0.0,0.0,72,0.00,,,0.00,WUHU21623XXSP,2013-01-19 03:24:00,
2013-01-18 22:29:00,32.7,24.7,30.36,NNE,22,0.0,0.0,72,0.00,,,0.00,WUHU21623XXSP,2013-01-19 03:29:00,
2013-01-18 22:34:00,32.7,24.7,30.36,SSE,157,0.0,6.5,72,0.00,,,0.00,WUHU21623XXSP,2013-01-19 03:34:00,
2013-01-18 22:40:00,32.9,24.7,30.36,SW,225,0.0,6.5,72,0.00,,,0.00,WUHU21623XXSP,2013-01-19 03:40:00,
2013-01-18 22:45:00,32.9,24.8,30.36,ENE,67,4.7,4.7,72,0.00,,,0.00,WUHU21623XXSP,2013-01-19 03:45:00,
2013-01-18 22:50:00,32.7,24.7,30.35,NNE,22,0.0,4.7,72,0.00,,,0.00,WUHU21623XXSP,2013-01-19 03:50:00,
2013-01-18 22:55:00,32.7,24.7,30.35,NNW,337,0.0,4.7,72,0.00,,,0.00,WUHU21623XXSP,2013-01-19 03:55:00,
2013-01-18 23:00:00,32.7,24.7,30.35,ESE,112,4.3,4.3,72,0.00,,,0.00,WUHU21623XXSP,2013-01-19 04:00:00,
2013-01-18 23:05:00,32.7,24.7,30.35,SE,135,0.0,4.3,72,0.00,,,0.00,WUHU21623XXSP,2013-01-19 04:05:00,
2013-01-18 23:10:00,32.5,24.5,30.34,NNE,22,0.0,0.0,72,0.00,,,0.00,WUHU21623XXSP,2013-01-19 04:10:00,
2013-01-18 23:15:00,32.5,24.5,30.34,WSW,247,0.0,0.0,72,0.00,,,0.00,WUHU21623XXSP,2013-01-19 04:15:00,
2013-01-18 23:20:00,32.4,24.3,30.34,WNW,292,0.0,0.0,72,0.00,,,0.00,WUHU21623XXSP,2013-01-19 04:20:00,
2013-01-18 23:25:00,32.2,24.2,30.34,ESE,112,0.0,0.0,72,0.00,,,0.00,WUHU21623XXSP,2013-01-19 04:25:00,
2013-01-18 23:30:00,32.2,24.2,30.34,ENE,67,0.0,0.0,72,0.00,,,0.00,WUHU21623XXSP,2013-01-19 04:30:00,
2013-01-18 23:35:00,32.2,24.2,30.34,North,0,0.0,0.0,72,0.00,,,0.00,WUHU21623XXSP,2013-01-19 04:35:00,
2013-01-18 23:40:00,32.2,24.2,30.33,NE,45,0.0,0.0,72,0.00,,,0.00,WUHU21623XXSP,2013-01-19 04:40:00,
2013-01-18 23:45:00,32.0,24.0,30.33,SW,225,0.0,0.0,72,0.00,,,0.00,WUHU21623XXSP,2013-01-19 04:45:00,
2013-01-18 23:50:00,31.8,24.2,30.33,SE,135,0.0,0.0,73,0.00,,,0.00,WUHU21623XXSP,2013-01-19 04:50:00,
2013-01-18 23:55:00,32.0,24.3,30.33,NNE,22,0.0,0.0,73,0.00,,,0.00,WUHU21623XXSP,2013-01-19 04:55:00,